EGMC/SEN METAR and TAF weather

Enter ICAO airport designator
Station Type Date Time Source
EGMC METAR 2022/01/18 08:20 UTC NOAA

EGMC 180820Z 00000KT 9000 MIFG NSC M04/M04 Q1038


Station Type Date Time Source
EGMC Decoded METAR 2022/01/18 08:20 UTC NOAA

Southend-On-Sea , United Kingdom (EGMC) 51-34N 000-42E
Jan 18, 2022 - 03:20 AM EST / 2022.01.18 0820 UTC
Wind: Calm:0
Visibility: 5 mile(s):0
Weather: shallow fog
Temperature: 24 F (-4 C)
Dew Point: 24 F (-4 C)
Relative Humidity: 100%
Pressure (altimeter): 30.65 in. Hg (1038 hPa)
ob: EGMC 180820Z 00000KT 9000 MIFG NSC M04/M04 Q1038
cycle: 8

Station Type Date Time Source
EGMC TAF 2016/04/18 18:00 UTC NOAA

TAF EGMC 181658Z 1818/1903 28008KT 9999 BKN045

Example: see airport list